Saint-Jean-sur-Richelieu, Canada
Current Conditions -  °F | °C
As of 10:00 PM on Wednesday 22 Oct 2014 (Local Time) from CYHU Reporting Station
Overcast Overcast  
Wind Chill: 36°   Ceiling: 7000
Heat Index: 45°   Visibility: 9mi
Dew Point: 34°   Wind: 21mph
Humidity: 66%   Direction: 20°NNE
Pressure: 30.21"   Gusts: NA
Location:  45.32°N, 73.27°W
Report Text: CYHU 230200Z AUTO 02018KT 9SM BKN070 BKN085 OVC180 07/01 A3021 RMK SLP232
Loading
Personal Weather Stations






























Interactive Weather Map
Tropical Storm Tracking
New forecast layout! Learn more

10-Day Weather Forecast

Advertisements
Track Severe Weather on mobile